Time;durP1;ratioP1;P1;durP2;ratioP2;P2;SDS_P1;SDS_P2;PMS_P1;PMS_P2;Temp;Humidity;BMP_temperature;BMP_pressure;BME280_temperature;BME280_humidity;BME280_pressure;Samples;Min_cycle;Max_cycle;Signal;HPM_P1;HPM_P2
2022/09/08 00:00:07;;;;;;;6.47;3.60;;;;;;;20.18;74.85;98990.13;4918769;29;21141;-77
2022/09/08 00:02:35;;;;;;;4.00;3.50;;;;;;;20.13;75.21;98982.66;4922759;29;20501;-77
2022/09/08 00:05:01;;;;;;;5.40;3.80;;;;;;;20.05;75.32;98983.50;4910607;29;20970;-76
2022/09/08 00:07:26;;;;;;;5.03;4.33;;;;;;;20.00;75.50;98977.03;4923197;29;20999;-77
2022/09/08 00:09:52;;;;;;;4.87;4.20;;;;;;;19.95;75.75;98977.56;4917532;29;20210;-78
2022/09/08 00:12:18;;;;;;;9.43;4.77;;;;;;;19.94;75.81;98967.06;4917565;29;20337;-78
2022/09/08 00:14:45;;;;;;;4.90;4.20;;;;;;;19.92;75.94;98967.25;4920767;29;20197;-76
2022/09/08 00:17:11;;;;;;;6.33;5.47;;;;;;;19.91;75.90;98973.59;4920204;29;20496;-76
2022/09/08 00:19:36;;;;;;;9.43;5.70;;;;;;;19.90;75.95;98971.91;4917472;29;20489;-77
2022/09/08 00:22:01;;;;;;;5.57;5.07;;;;;;;19.92;76.11;98963.75;4918682;29;20287;-80
2022/09/08 00:24:27;;;;;;;5.90;5.20;;;;;;;19.94;76.24;98957.25;4920180;29;20691;-77
2022/09/08 00:26:55;;;;;;;6.30;5.53;;;;;;;19.98;76.16;98952.38;4919206;29;20232;-77
2022/09/08 00:29:20;;;;;;;6.87;4.70;;;;;;;19.91;76.44;98941.59;4902786;29;20269;-78
2022/09/08 00:31:46;;;;;;;9.90;5.20;;;;;;;19.92;76.37;98948.56;4922348;29;20478;-77
2022/09/08 00:34:12;;;;;;;6.10;5.50;;;;;;;19.93;76.42;98966.25;4921028;29;20795;-76
2022/09/08 00:36:38;;;;;;;8.53;5.00;;;;;;;19.95;76.69;98964.22;4921564;29;20233;-77
2022/09/08 00:39:03;;;;;;;6.60;5.87;;;;;;;19.96;76.37;98959.75;4921952;29;20289;-77
2022/09/08 00:41:29;;;;;;;6.70;4.87;;;;;;;19.98;76.49;98957.72;4923191;29;20865;-76
2022/09/08 00:43:59;;;;;;;5.83;5.30;;;;;;;20.02;76.55;98970.53;4922564;29;20207;-76
2022/09/08 00:46:35;;;;;;;6.23;4.70;;;;;;;20.06;76.39;98966.53;4923183;29;20324;-77
2022/09/08 00:49:11;;;;;;;7.00;6.27;;;;;;;20.09;76.16;98963.50;4921645;28;20466;-77
2022/09/08 00:51:41;;;;;;;12.10;5.93;;;;;;;20.07;76.12;98960.19;4923478;29;20533;-76
2022/09/08 00:54:09;;;;;;;7.17;4.90;;;;;;;20.01;76.32;98952.03;4918294;29;20562;-79
2022/09/08 00:56:34;;;;;;;9.37;5.80;;;;;;;20.02;76.50;98954.53;4922976;29;20481;-77
2022/09/08 00:59:01;;;;;;;7.70;5.70;;;;;;;20.01;76.42;98952.03;4922637;29;20458;-77
2022/09/08 01:01:27;;;;;;;7.80;5.20;;;;;;;19.98;76.54;98952.38;4919750;29;20260;-77
2022/09/08 01:03:55;;;;;;;6.40;5.10;;;;;;;19.95;76.60;98950.06;4916505;29;20488;-77
2022/09/08 01:12:50;;;;;;;9.70;5.73;;;;;;;19.71;77.56;98937.69;4885967;29;20524;-79
2022/09/08 01:15:19;;;;;;;6.53;5.83;;;;;;;19.72;77.58;98932.19;4918855;29;20496;-78
2022/09/08 01:17:47;;;;;;;8.93;6.20;;;;;;;19.74;77.47;98926.66;4943727;23;20508;-76
2022/09/08 01:20:15;;;;;;;10.93;7.50;;;;;;;19.75;77.47;98931.00;4943716;28;20839;-77
2022/09/08 01:22:59;;;;;;;8.10;6.37;;;;;;;19.74;77.49;98918.69;4954033;28;20523;-78
2022/09/08 01:26:06;;;;;;;8.97;7.07;;;;;;;19.75;77.65;98915.03;4958032;28;20453;-76
2022/09/08 01:29:00;;;;;;;7.47;5.73;;;;;;;19.75;77.63;98915.84;4954902;28;21054;-78
2022/09/08 01:31:29;;;;;;;11.10;8.00;;;;;;;19.76;77.58;98900.69;4948948;28;20449;-76
2022/09/08 01:33:55;;;;;;;9.00;6.70;;;;;;;19.77;77.61;98897.03;4948952;28;20487;-76
2022/09/08 01:36:20;;;;;;;8.73;7.10;;;;;;;19.77;77.27;98905.84;4950570;28;20964;-76
2022/09/08 01:38:46;;;;;;;8.33;5.93;;;;;;;19.78;77.57;98907.50;4952288;28;20257;-75
2022/09/08 01:41:13;;;;;;;9.00;7.67;;;;;;;19.82;77.31;98908.84;4952043;28;20234;-77
2022/09/08 01:43:39;;;;;;;9.43;7.80;;;;;;;19.85;77.34;98905.00;4934009;28;20201;-76
2022/09/08 01:46:05;;;;;;;12.33;7.70;;;;;;;19.85;77.13;98900.47;4951836;28;21063;-76
2022/09/08 01:48:31;;;;;;;13.33;7.50;;;;;;;19.83;77.35;98907.81;4951837;28;20482;-78
2022/09/08 01:51:01;;;;;;;6.93;5.67;;;;;;;19.82;77.45;98905.31;4951922;28;20600;-78
2022/09/08 01:53:28;;;;;;;9.97;7.63;;;;;;;19.83;77.62;98913.16;4950302;28;21048;-75
2022/09/08 01:55:53;;;;;;;8.83;6.57;;;;;;;19.86;77.40;98918.13;4953771;28;20821;-76
2022/09/08 01:58:18;;;;;;;9.50;6.03;;;;;;;19.89;77.57;98933.75;4950132;28;20991;-75
2022/09/08 02:00:44;;;;;;;9.00;5.70;;;;;;;19.92;77.33;98943.25;4951005;28;20201;-76
2022/09/08 02:03:11;;;;;;;8.07;5.77;;;;;;;19.95;77.43;98942.91;4949487;28;20360;-76
2022/09/08 02:05:38;;;;;;;6.43;5.60;;;;;;;19.96;77.14;98944.56;4949659;28;20799;-77
2022/09/08 02:08:04;;;;;;;6.03;4.77;;;;;;;19.96;77.18;98941.09;4948641;28;20930;-76
2022/09/08 02:10:30;;;;;;;6.70;5.03;;;;;;;19.95;77.25;98926.06;4949138;28;20459;-76
2022/09/08 02:12:55;;;;;;;6.63;5.13;;;;;;;19.96;77.16;98935.75;4953319;28;20826;-76
2022/09/08 02:15:20;;;;;;;6.43;4.20;;;;;;;19.93;77.12;98944.94;4951766;28;20300;-75
2022/09/08 02:17:46;;;;;;;6.80;5.10;;;;;;;19.91;77.14;98938.94;4947355;28;20266;-75
2022/09/08 02:20:12;;;;;;;5.87;5.27;;;;;;;19.94;77.22;98941.25;4951485;28;20702;-76
2022/09/08 02:22:37;;;;;;;8.10;5.40;;;;;;;19.96;77.12;98941.09;4952750;28;20289;-77
2022/09/08 02:25:02;;;;;;;4.80;4.30;;;;;;;19.98;77.12;98949.72;4950201;28;20235;-77
2022/09/08 02:27:28;;;;;;;6.27;4.90;;;;;;;20.01;77.09;98952.03;4950018;28;20233;-78
2022/09/08 02:29:53;;;;;;;6.10;4.23;;;;;;;20.04;76.90;98939.19;4950872;28;20201;-76
2022/09/08 02:32:19;;;;;;;5.03;4.50;;;;;;;20.08;76.87;98947.66;4953535;28;20292;-76
2022/09/08 02:34:44;;;;;;;5.50;3.90;;;;;;;20.10;77.04;98949.16;4953466;28;20239;-77
2022/09/08 02:37:09;;;;;;;8.30;3.60;;;;;;;20.09;76.30;98954.66;4953276;28;20736;-75
2022/09/08 02:39:35;;;;;;;3.73;3.30;;;;;;;20.09;76.44;98957.31;4951825;28;20236;-76
2022/09/08 02:42:00;;;;;;;4.70;3.87;;;;;;;20.10;76.35;98964.34;4954101;28;20212;-76
2022/09/08 02:44:26;;;;;;;7.43;3.30;;;;;;;20.10;76.40;98965.16;4949959;28;20240;-76
2022/09/08 02:46:51;;;;;;;3.03;2.70;;;;;;;20.09;76.35;98966.19;4951609;28;20255;-76
2022/09/08 02:49:17;;;;;;;2.37;1.80;;;;;;;20.09;76.17;98965.31;4953563;28;20252;-75
2022/09/08 02:51:43;;;;;;;2.73;2.47;;;;;;;20.06;76.06;98968.34;4954366;28;20780;-77
2022/09/08 02:54:08;;;;;;;3.03;2.20;;;;;;;20.01;75.97;98963.56;4950932;28;20335;-77
2022/09/08 02:56:34;;;;;;;2.97;2.47;;;;;;;19.95;75.76;98953.56;4934150;28;20955;-76
2022/09/08 02:59:00;;;;;;;2.07;1.57;;;;;;;19.91;75.77;98962.09;4949971;28;20228;-76
2022/09/08 03:01:26;;;;;;;3.47;2.53;;;;;;;19.86;75.46;98955.44;4936915;28;20275;-75
2022/09/08 03:03:51;;;;;;;1.63;1.53;;;;;;;19.83;75.39;98957.63;4948903;28;20961;-77
2022/09/08 03:06:18;;;;;;;4.70;1.73;;;;;;;19.76;74.97;98956.66;4950896;28;20264;-76
2022/09/08 03:08:45;;;;;;;1.83;1.27;;;;;;;19.73;74.78;98957.00;4949431;28;20709;-76
2022/09/08 03:11:11;;;;;;;2.43;1.60;;;;;;;19.69;74.63;98966.34;4950097;28;20843;-77
2022/09/08 03:13:39;;;;;;;1.57;1.30;;;;;;;19.61;74.11;98960.00;4952317;28;20464;-77
2022/09/08 03:16:04;;;;;;;1.57;1.20;;;;;;;19.56;74.02;98966.84;4950722;28;20213;-76
2022/09/08 03:18:30;;;;;;;2.00;1.70;;;;;;;19.53;74.13;98970.69;4948651;28;20877;-76
2022/09/08 03:21:01;;;;;;;1.23;1.13;;;;;;;19.50;73.92;98971.03;4946498;28;20216;-76
2022/09/08 03:23:27;;;;;;;1.93;1.70;;;;;;;19.48;73.76;98969.53;4948542;28;20225;-77
2022/09/08 03:25:52;;;;;;;1.97;1.77;;;;;;;19.44;73.99;98969.88;4950151;28;20476;-77
2022/09/08 03:28:25;;;;;;;1.67;1.30;;;;;;;19.42;74.26;98966.53;4942630;28;20224;-76
2022/09/08 03:30:51;;;;;;;5.03;1.30;;;;;;;19.42;74.00;98968.38;4944205;28;20661;-76
2022/09/08 03:33:17;;;;;;;2.03;1.45;;;;;;;19.41;74.31;98959.53;4942723;28;20486;-78
2022/09/08 03:35:43;;;;;;;2.60;1.20;;;;;;;19.42;74.41;98963.06;4946629;28;20452;-77
2022/09/08 03:38:08;;;;;;;2.23;1.40;;;;;;;19.41;74.45;98961.38;4942993;28;20591;-78
2022/09/08 03:40:38;;;;;;;1.50;1.27;;;;;;;19.43;74.60;98959.38;4944486;28;21461;-76
2022/09/08 03:43:05;;;;;;;1.40;1.30;;;;;;;19.44;74.39;98955.72;4941192;28;20227;-76
2022/09/08 03:45:31;;;;;;;1.20;1.10;;;;;;;19.48;74.45;98950.88;4941836;28;20486;-76
2022/09/08 03:47:56;;;;;;;1.77;1.33;;;;;;;19.51;74.32;98959.38;4954069;28;20480;-76
2022/09/08 03:50:23;;;;;;;2.07;1.70;;;;;;;19.54;74.16;98959.00;4956391;28;20281;-76
2022/09/08 03:52:49;;;;;;;1.80;1.43;;;;;;;19.52;74.48;98955.69;4951719;28;20190;-80
2022/09/08 03:55:14;;;;;;;2.67;1.20;;;;;;;19.50;74.38;98955.06;4955382;28;20796;-76
2022/09/08 03:57:39;;;;;;;1.47;1.37;;;;;;;19.46;74.56;98959.88;4956806;28;20435;-76
2022/09/08 04:00:08;;;;;;;3.00;1.63;;;;;;;19.41;74.89;98964.88;4953654;28;20774;-76
2022/09/08 04:02:40;;;;;;;2.20;1.50;;;;;;;19.39;75.66;98960.75;4955857;28;20517;-80
2022/09/08 04:05:06;;;;;;;2.00;1.77;;;;;;;19.33;75.77;98970.22;4954136;28;20347;-80
2022/09/08 04:07:32;;;;;;;1.97;1.50;;;;;;;19.28;76.11;98963.72;4954117;28;20229;-76
2022/09/08 04:09:57;;;;;;;2.60;1.70;;;;;;;19.22;75.78;98965.25;4951874;28;20451;-76
2022/09/08 04:12:25;;;;;;;4.33;1.80;;;;;;;19.13;75.33;98964.44;4954945;28;20506;-76
2022/09/08 04:14:50;;;;;;;2.27;1.60;;;;;;;19.02;75.55;98959.44;4956451;28;20202;-76
2022/09/08 04:17:18;;;;;;;3.17;1.53;;;;;;;18.93;75.43;98971.09;4954219;28;20499;-76
2022/09/08 04:19:43;;;;;;;2.70;1.30;;;;;;;18.88;75.57;98976.09;4956621;28;20495;-79
2022/09/08 04:22:10;;;;;;;1.50;1.30;;;;;;;18.83;74.99;98976.59;4962267;28;20956;-80
2022/09/08 04:24:36;;;;;;;1.97;1.80;;;;;;;18.79;75.08;98975.25;4962611;28;20485;-75
2022/09/08 04:27:01;;;;;;;1.97;1.50;;;;;;;18.67;75.03;98971.22;4960768;28;20538;-80
2022/09/08 04:29:27;;;;;;;3.27;1.50;;;;;;;18.61;75.19;98977.22;4955782;28;20217;-76
2022/09/08 04:31:52;;;;;;;2.20;1.73;;;;;;;18.55;75.41;98970.69;4962267;28;20192;-76
2022/09/08 04:34:18;;;;;;;2.30;1.63;;;;;;;18.55;75.32;98978.69;4958913;28;20562;-76
2022/09/08 04:36:44;;;;;;;2.47;1.37;;;;;;;18.56;75.20;98977.69;4954984;28;20229;-76
2022/09/08 04:39:10;;;;;;;1.93;1.50;;;;;;;18.55;75.45;98976.88;4947572;29;20279;-75
2022/09/08 04:41:36;;;;;;;3.73;2.03;;;;;;;18.55;75.39;98973.34;4957228;28;20959;-78
2022/09/08 04:44:03;;;;;;;4.10;1.93;;;;;;;18.56;75.57;98981.19;4969767;28;20868;-76
2022/09/08 04:46:30;;;;;;;3.17;1.73;;;;;;;18.59;75.37;98982.69;4968451;28;20475;-76
2022/09/08 04:48:56;;;;;;;2.13;1.60;;;;;;;18.63;75.78;98984.00;4968582;28;20531;-77
2022/09/08 04:51:22;;;;;;;5.23;1.60;;;;;;;18.66;75.71;98998.81;4972134;28;20443;-76
2022/09/08 04:53:51;;;;;;;2.13;1.50;;;;;;;18.62;75.98;98992.16;4974435;28;20205;-76
2022/09/08 04:56:18;;;;;;;4.30;3.03;;;;;;;18.58;75.94;98994.34;4973510;28;20448;-78
2022/09/08 04:58:45;;;;;;;2.23;1.60;;;;;;;18.58;76.14;99002.31;4972192;28;20994;-76
2022/09/08 05:01:18;;;;;;;2.57;2.13;;;;;;;18.57;75.98;98996.13;4960618;28;20582;-76
2022/09/08 05:03:44;;;;;;;2.55;2.00;;;;;;;18.60;76.36;98994.97;4953931;29;20479;-77
2022/09/08 05:06:15;;;;;;;1.90;1.70;;;;;;;18.62;76.68;98994.81;4957381;28;20208;-77
2022/09/08 05:08:43;;;;;;;3.17;1.80;;;;;;;18.60;76.64;99000.31;4969946;28;20228;-77
2022/09/08 05:11:09;;;;;;;3.73;1.57;;;;;;;18.62;76.62;99013.44;4968275;28;20456;-77
2022/09/08 05:13:34;;;;;;;2.90;1.83;;;;;;;18.64;76.41;99012.28;4972275;28;20534;-76
2022/09/08 05:16:08;;;;;;;1.97;1.67;;;;;;;18.66;76.45;99018.28;4967280;28;21028;-79
2022/09/08 05:18:34;;;;;;;2.30;1.87;;;;;;;18.69;76.28;99015.28;4959899;28;20308;-76
2022/09/08 05:20:59;;;;;;;1.80;1.50;;;;;;;18.71;76.16;99018.63;4952268;28;21003;-76
2022/09/08 05:23:25;;;;;;;2.63;1.77;;;;;;;18.71;76.21;99020.44;4965479;28;20426;-76
2022/09/08 05:26:00;;;;;;;1.87;1.30;;;;;;;18.73;76.06;99021.94;4963147;28;20685;-77
2022/09/08 05:28:28;;;;;;;1.73;1.50;;;;;;;18.74;75.63;99022.75;4958905;28;20700;-77
2022/09/08 05:30:54;;;;;;;1.50;1.20;;;;;;;18.72;75.65;99019.47;4960596;28;20480;-77
2022/09/08 05:33:20;;;;;;;3.67;1.43;;;;;;;18.71;75.58;99018.63;4953740;28;20469;-80
2022/09/08 05:35:46;;;;;;;3.43;1.53;;;;;;;18.72;75.13;99014.97;4957545;28;21149;-76
2022/09/08 05:38:12;;;;;;;2.80;1.50;;;;;;;18.72;75.32;99030.09;4956433;28;20817;-77
2022/09/08 05:40:38;;;;;;;4.50;1.50;;;;;;;18.75;75.16;99025.31;4956640;28;20492;-76
2022/09/08 05:43:04;;;;;;;4.73;1.53;;;;;;;18.74;75.02;99034.28;4956026;28;20610;-77
2022/09/08 05:45:30;;;;;;;3.27;1.40;;;;;;;18.75;74.72;99035.13;4951448;28;20468;-79
2022/09/08 05:47:55;;;;;;;3.27;1.70;;;;;;;18.74;74.98;99038.72;4954642;28;20227;-77
2022/09/08 05:50:21;;;;;;;2.07;1.50;;;;;;;18.74;75.06;99044.03;4955130;28;20472;-78
2022/09/08 05:52:47;;;;;;;2.93;1.80;;;;;;;18.74;75.01;99039.63;4953869;28;20201;-80
2022/09/08 05:55:13;;;;;;;1.87;1.30;;;;;;;18.74;74.63;99050.25;4953047;28;20679;-80
2022/09/08 05:57:39;;;;;;;10.60;3.13;;;;;;;18.74;74.56;99042.28;4956985;28;20434;-76
2022/09/08 06:00:07;;;;;;;1.73;1.30;;;;;;;18.75;74.76;99051.09;4954983;28;20515;-77
2022/09/08 06:02:35;;;;;;;2.13;1.80;;;;;;;18.73;74.59;99048.53;4955023;28;20886;-76
2022/09/08 06:05:00;;;;;;;1.73;1.63;;;;;;;18.74;74.63;99049.38;4954273;28;20748;-77
2022/09/08 06:07:26;;;;;;;2.70;1.60;;;;;;;18.75;74.72;99051.09;4953392;28;20267;-77
2022/09/08 06:09:52;;;;;;;2.07;1.83;;;;;;;18.75;74.94;99051.09;4953308;28;20292;-80
2022/09/08 06:12:17;;;;;;;2.40;1.63;;;;;;;18.78;74.91;99054.25;4954755;28;20433;-81
2022/09/08 06:14:42;;;;;;;1.50;1.40;;;;;;;18.83;74.90;99045.78;4954393;28;20936;-76
2022/09/08 06:17:09;;;;;;;3.70;1.60;;;;;;;18.86;74.90;99048.09;4951769;28;20232;-77
2022/09/08 06:19:34;;;;;;;2.77;1.60;;;;;;;18.88;74.67;99050.59;4955031;28;20240;-76
2022/09/08 06:22:00;;;;;;;2.17;1.57;;;;;;;18.91;74.41;99059.09;4952849;28;20467;-78
2022/09/08 06:24:25;;;;;;;3.43;2.30;;;;;;;18.93;74.37;99061.56;4950373;28;20578;-77
2022/09/08 06:27:21;;;;;;;2.30;2.10;;;;;;;18.95;74.45;99057.75;4951890;28;20213;-77
2022/09/08 06:30:12;;;;;;;1.73;1.60;;;;;;;19.02;74.37;99063.25;4934408;28;20216;-76
2022/09/08 06:33:00;;;;;;;2.50;1.87;;;;;;;19.08;74.01;99064.44;4956237;28;20590;-76
2022/09/08 06:35:35;;;;;;;2.93;1.73;;;;;;;19.09;74.12;99066.06;4957173;28;20445;-77
2022/09/08 06:38:19;;;;;;;2.43;1.30;;;;;;;19.12;74.00;99066.59;4957174;28;20460;-76
2022/09/08 06:40:49;;;;;;;6.43;1.60;;;;;;;19.20;73.71;99058.63;4953983;28;20586;-77
2022/09/08 06:43:32;;;;;;;1.83;1.50;;;;;;;19.23;73.66;99066.25;4955735;28;20700;-77
2022/09/08 06:46:04;;;;;;;4.40;2.30;;;;;;;19.27;73.25;99061.44;4953985;28;20447;-76
2022/09/08 06:48:32;;;;;;;2.17;1.43;;;;;;;19.34;72.99;99061.59;4953280;28;20483;-76
2022/09/08 06:51:15;;;;;;;2.53;1.40;;;;;;;19.34;72.80;99073.09;4957515;28;21074;-80
2022/09/08 06:54:12;;;;;;;3.13;1.57;;;;;;;19.33;72.88;99073.25;4956752;28;20620;-75
2022/09/08 06:56:59;;;;;;;4.23;1.53;;;;;;;19.32;72.63;99080.41;4955680;28;20447;-76
2022/09/08 06:59:48;;;;;;;2.80;1.70;;;;;;;19.38;72.34;99073.56;4956228;28;20479;-77
2022/09/08 07:02:25;;;;;;;2.20;1.30;;;;;;;19.46;72.23;99071.72;4954320;28;20936;-77
2022/09/08 07:05:17;;;;;;;4.73;1.80;;;;;;;19.60;71.77;99080.88;4952866;28;20719;-77
2022/09/08 07:07:42;;;;;;;2.27;1.50;;;;;;;19.72;71.25;99076.06;4943330;28;20593;-79
2022/09/08 07:10:13;;;;;;;1.57;1.43;;;;;;;19.79;70.88;99074.38;4951571;28;20965;-81
2022/09/08 07:12:54;;;;;;;3.33;1.50;;;;;;;19.85;70.75;99075.56;4951840;28;20391;-78
2022/09/08 07:15:29;;;;;;;3.00;1.70;;;;;;;19.91;70.54;99072.22;4950215;28;20528;-76
2022/09/08 07:18:19;;;;;;;2.10;1.43;;;;;;;19.97;70.34;99074.19;4974838;23;20620;31
2022/09/08 07:20:45;;;;;;;1.80;1.43;;;;;;;19.99;70.23;99079.34;4883722;29;20499;-74
2022/09/08 07:23:24;;;;;;;2.00;1.50;;;;;;;20.07;69.97;99079.31;4889836;29;20482;-74
2022/09/08 07:26:07;;;;;;;5.50;2.50;;;;;;;20.08;69.77;99081.81;4897492;29;20446;-74
2022/09/08 07:28:40;;;;;;;2.90;1.70;;;;;;;20.19;69.26;99087.78;4900239;29;21021;-75
2022/09/08 07:31:17;;;;;;;4.90;2.70;;;;;;;20.36;68.84;99093.88;4913031;29;20457;-74
2022/09/08 07:33:47;;;;;;;4.20;1.77;;;;;;;20.57;68.17;99095.97;4910330;29;20477;-72
2022/09/08 07:36:20;;;;;;;4.27;2.83;;;;;;;20.99;66.74;99096.41;4908355;28;20845;-72
2022/09/08 07:38:54;;;;;;;4.33;3.40;;;;;;;21.16;65.99;99097.13;4909767;29;21064;-72
2022/09/08 07:41:35;;;;;;;6.40;3.77;;;;;;;21.14;65.82;99109.00;4909968;29;20565;-74
2022/09/08 07:44:10;;;;;;;4.50;2.50;;;;;;;20.99;65.97;99108.94;4909872;29;20472;-71
2022/09/08 07:47:23;;;;;;;4.00;2.90;;;;;;;20.86;66.13;99103.34;4911597;29;20572;-72
2022/09/08 07:49:57;;;;;;;4.57;3.90;;;;;;;20.69;66.38;99106.09;4879064;29;20487;-71
2022/09/08 07:52:41;;;;;;;2.97;1.80;;;;;;;20.68;66.10;99108.94;4878691;29;20474;-74
2022/09/08 07:55:10;;;;;;;5.27;3.43;;;;;;;21.12;65.31;99109.19;4895591;29;20487;-74
2022/09/08 07:57:56;;;;;;;1.97;1.70;;;;;;;21.81;62.82;99108.28;4912171;29;20473;-70
2022/09/08 08:00:49;;;;;;;1.93;1.23;;;;;;;22.65;59.93;99097.31;4913842;29;20880;-72
2022/09/08 08:03:38;;;;;;;4.13;1.60;;;;;;;23.56;57.09;99090.44;5039883;28;20564;-73
2022/09/08 08:06:14;;;;;;;4.23;1.43;;;;;;;24.40;55.16;99084.16;5037360;28;20815;-74
2022/09/08 08:09:18;;;;;;;1.33;1.00;;;;;;;25.08;52.97;99088.75;5037544;28;20430;-75
2022/09/08 08:12:17;;;;;;;7.20;1.40;;;;;;;25.88;50.95;99091.53;5020491;28;20443;-74
2022/09/08 08:14:45;;;;;;;1.20;1.10;;;;;;;26.38;48.86;99095.34;5037107;28;21034;-74
2022/09/08 08:17:35;;;;;;;1.93;1.47;;;;;;;26.70;47.34;99098.09;5037737;28;20448;-73
2022/09/08 08:20:28;;;;;;;1.40;1.00;;;;;;;26.85;46.61;99095.16;5041116;28;20548;-74
2022/09/08 08:23:00;;;;;;;1.03;0.90;;;;;;;26.92;45.92;99098.59;5036337;28;20476;-74
2022/09/08 08:25:36;;;;;;;2.00;1.60;;;;;;;27.01;45.50;99104.59;5037994;28;20443;-74
2022/09/08 08:28:18;;;;;;;1.57;1.20;;;;;;;27.11;44.29;99097.69;5039526;28;20439;-74
2022/09/08 08:31:24;;;;;;;3.40;1.77;;;;;;;27.01;43.85;99102.72;5037497;28;21231;-74
2022/09/08 08:33:58;;;;;;;2.90;2.00;;;;;;;26.65;44.53;99100.63;5044094;28;20408;-74
2022/09/08 08:36:26;;;;;;;4.60;2.17;;;;;;;26.20;45.92;99108.63;5038755;28;20801;-74
2022/09/08 08:39:08;;;;;;;5.67;3.33;;;;;;;25.53;47.02;99118.59;5037674;28;21124;-73
2022/09/08 08:42:12;;;;;;;3.97;2.83;;;;;;;24.95;47.97;99119.94;5038899;28;21049;-74
2022/09/08 08:44:55;;;;;;;4.43;2.90;;;;;;;24.86;48.08;99114.94;5037557;28;20431;-74
2022/09/08 08:48:15;;;;;;;2.73;1.80;;;;;;;25.27;47.03;99111.34;5040568;28;20489;-74
2022/09/08 08:50:53;;;;;;;5.30;1.90;;;;;;;25.51;46.35;99108.03;5004291;28;20463;-74
2022/09/08 08:54:00;;;;;;;4.03;2.20;;;;;;;25.70;46.16;99103.69;5032521;28;20913;-74
2022/09/08 08:56:44;;;;;;;2.90;1.90;;;;;;;25.86;45.81;99117.78;5040895;28;20983;-74
2022/09/08 08:59:21;;;;;;;5.10;1.33;;;;;;;26.05;45.57;99115.06;5038044;28;20464;-74
2022/09/08 09:02:21;;;;;;;1.63;1.20;;;;;;;26.10;45.19;99109.06;5035506;28;20946;-75
2022/09/08 09:04:46;;;;;;;1.47;1.10;;;;;;;26.25;44.91;99112.34;5035860;28;20845;-74
2022/09/08 09:07:27;;;;;;;1.00;0.90;;;;;;;26.30;44.45;99106.31;5036432;28;21020;-73
2022/09/08 09:10:04;;;;;;;1.83;1.00;;;;;;;26.05;44.29;99119.63;5036067;28;20258;-73
2022/09/08 09:12:32;;;;;;;2.90;1.10;;;;;;;25.73;43.96;99108.66;5037514;28;20822;-74
2022/09/08 09:15:17;;;;;;;1.67;0.90;;;;;;;25.39;44.83;99117.78;5020570;28;20555;-73
2022/09/08 09:17:54;;;;;;;3.23;1.60;;;;;;;25.14;44.94;99120.16;5019802;28;20436;-73
2022/09/08 09:20:35;;;;;;;1.80;1.10;;;;;;;24.92;45.16;99112.28;5024654;28;20427;-73
2022/09/08 09:23:29;;;;;;;1.03;0.90;;;;;;;24.83;44.84;99105.44;5024600;28;20720;-73
2022/09/08 09:26:00;;;;;;;4.17;1.00;;;;;;;24.61;44.64;99099.38;5023065;28;20671;-73
2022/09/08 09:28:55;;;;;;;2.40;0.90;;;;;;;24.59;45.58;99104.09;5020537;28;20600;-73
2022/09/08 09:31:41;;;;;;;4.03;1.00;;;;;;;24.78;45.43;99104.38;5024814;28;20498;-73
2022/09/08 09:34:10;;;;;;;2.30;0.87;;;;;;;24.99;44.82;99106.09;5023479;28;20462;-72
2022/09/08 09:36:54;;;;;;;1.30;1.00;;;;;;;25.05;44.80;99097.22;5026001;28;20632;-73
2022/09/08 09:39:45;;;;;;;1.20;0.83;;;;;;;25.19;44.56;99098.09;5025274;28;21072;-73
2022/09/08 09:42:29;;;;;;;2.57;1.90;;;;;;;25.27;44.46;99104.09;5021247;28;20479;-74
2022/09/08 09:45:34;;;;;;;2.40;0.87;;;;;;;25.12;43.94;99103.44;5025271;28;20461;-73
2022/09/08 09:48:33;;;;;;;0.90;0.80;;;;;;;25.14;43.72;99109.41;5020049;28;20461;-73
2022/09/08 09:51:39;;;;;;;6.83;1.27;;;;;;;25.22;43.82;99105.75;5017429;28;20709;-73
2022/09/08 09:54:04;;;;;;;2.70;1.13;;;;;;;25.23;43.43;99113.63;5019528;28;20490;-73
2022/09/08 09:56:54;;;;;;;2.27;0.97;;;;;;;25.13;43.90;99116.66;5020590;28;20440;-74
2022/09/08 09:59:35;;;;;;;3.27;1.10;;;;;;;25.06;43.91;99102.41;5019129;28;20225;-73
2022/09/08 10:02:28;;;;;;;3.00;1.40;;;;;;;24.93;44.32;99102.38;5017888;28;20991;-73
2022/09/08 10:05:24;;;;;;;3.60;1.33;;;;;;;24.94;43.96;99109.38;5019254;28;20437;-72
2022/09/08 10:08:18;;;;;;;3.10;0.87;;;;;;;24.83;44.23;99107.28;5019647;28;20683;-73
2022/09/08 10:10:53;;;;;;;1.50;0.93;;;;;;;24.75;44.49;99110.16;5021489;28;20438;-73
2022/09/08 10:14:01;;;;;;;1.43;1.10;;;;;;;24.91;44.42;99096.38;5019723;28;20439;-73
2022/09/08 10:17:03;;;;;;;1.70;1.10;;;;;;;25.19;44.32;99106.97;5019536;28;20951;-74
2022/09/08 10:20:00;;;;;;;2.27;1.40;;;;;;;25.44;43.55;99111.75;5019681;28;21024;-72
2022/09/08 10:22:50;;;;;;;5.40;1.23;;;;;;;25.36;43.45;99112.81;5019035;28;20528;-73
2022/09/08 10:25:37;;;;;;;1.57;1.00;;;;;;;25.25;43.36;99111.56;5017358;28;20467;-73
2022/09/08 10:28:34;;;;;;;1.77;1.00;;;;;;;25.25;43.29;99106.19;5018958;28;20452;-73
2022/09/08 10:31:22;;;;;;;1.17;1.07;;;;;;;25.15;43.11;99106.56;5024440;28;20595;-75
2022/09/08 10:33:53;;;;;;;2.33;1.10;;;;;;;25.08;42.84;99113.75;5024041;28;20428;-73
2022/09/08 10:36:34;;;;;;;1.57;1.00;;;;;;;24.84;42.74;99114.31;5024843;28;20663;-73
2022/09/08 10:39:19;;;;;;;2.30;1.10;;;;;;;24.58;43.44;99107.81;5020850;28;20454;-73
2022/09/08 10:42:05;;;;;;;2.17;0.90;;;;;;;24.43;43.60;99101.72;5022968;28;21030;-75
2022/09/08 10:44:58;;;;;;;3.73;1.60;;;;;;;24.42;43.54;99119.69;5021965;28;20453;-73
2022/09/08 10:47:47;;;;;;;2.50;1.57;;;;;;;24.49;43.24;99112.53;5021524;28;21111;-73
2022/09/08 10:50:19;;;;;;;1.60;0.97;;;;;;;24.58;42.42;99107.81;5022897;28;20766;-73
2022/09/08 10:53:02;;;;;;;2.90;1.00;;;;;;;24.71;42.88;99112.44;5023160;28;20453;-74
2022/09/08 10:55:52;;;;;;;4.20;1.87;;;;;;;25.02;42.73;99100.31;5018257;28;20955;-73
2022/09/08 10:58:37;;;;;;;2.50;1.13;;;;;;;25.36;41.97;99113.63;5021815;28;20808;-73
2022/09/08 11:01:36;;;;;;;3.20;1.00;;;;;;;25.60;41.33;99103.31;5022650;28;20440;-74
2022/09/08 11:04:17;;;;;;;1.67;1.17;;;;;;;25.68;41.21;99103.09;5024184;28;20801;-73
2022/09/08 11:07:01;;;;;;;4.47;1.20;;;;;;;25.83;41.12;99097.47;5019540;28;20573;-74
2022/09/08 11:09:51;;;;;;;2.30;1.10;;;;;;;26.10;40.98;99101.00;5019361;28;20938;-74
2022/09/08 11:12:33;;;;;;;2.97;0.90;;;;;;;26.17;39.26;99082.97;5017914;28;20481;-73
2022/09/08 11:15:20;;;;;;;4.13;2.07;;;;;;;26.12;39.68;99088.16;5017416;28;20756;-74
2022/09/08 11:17:49;;;;;;;1.93;1.00;;;;;;;26.15;39.43;99092.28;5018003;28;20441;-73
2022/09/08 11:20:40;;;;;;;2.53;1.03;;;;;;;26.16;39.10;99086.69;5018651;28;20443;-73
2022/09/08 11:23:14;;;;;;;2.30;1.10;;;;;;;26.20;38.92;99081.72;5017634;28;20496;-73
2022/09/08 11:25:53;;;;;;;2.43;1.10;;;;;;;26.24;38.81;99069.47;5009920;28;20469;-73
2022/09/08 11:28:18;;;;;;;8.00;1.23;;;;;;;26.31;38.85;99075.66;4997613;28;20720;-73
2022/09/08 11:30:53;;;;;;;2.33;1.77;;;;;;;26.39;38.54;99085.38;4999156;28;20778;-73
2022/09/08 11:33:42;;;;;;;2.20;1.00;;;;;;;26.46;38.07;99076.25;4994046;28;20190;-73
2022/09/08 11:36:29;;;;;;;1.87;1.03;;;;;;;26.53;38.26;99070.84;4999484;28;21009;-73
2022/09/08 11:39:11;;;;;;;2.00;1.00;;;;;;;26.67;38.39;99069.72;4999449;28;20592;-73
2022/09/08 11:42:10;;;;;;;1.83;0.93;;;;;;;26.69;37.56;99083.00;4996574;28;20465;-73
2022/09/08 11:44:46;;;;;;;2.13;1.30;;;;;;;26.66;38.09;99076.16;4997732;28;20634;-73
2022/09/08 11:47:20;;;;;;;1.03;0.90;;;;;;;26.59;37.52;99075.38;4997151;28;20993;-73
2022/09/08 11:50:10;;;;;;;3.47;1.10;;;;;;;26.41;36.09;99085.97;4997433;28;21118;-73
2022/09/08 11:52:59;;;;;;;3.93;1.43;;;;;;;26.40;36.49;99082.47;4996336;28;20444;-73
2022/09/08 11:55:37;;;;;;;3.33;1.07;;;;;;;26.46;36.38;99086.16;4998980;28;20480;-73
2022/09/08 11:58:20;;;;;;;1.70;0.93;;;;;;;26.42;36.09;99091.16;4998173;28;20461;-73
2022/09/08 12:01:00;;;;;;;2.40;0.70;;;;;;;26.32;36.52;99082.69;4998319;28;20444;-73
2022/09/08 12:04:03;;;;;;;1.07;0.97;;;;;;;26.17;36.45;99076.75;4997392;28;20807;-73
2022/09/08 12:06:46;;;;;;;2.50;1.10;;;;;;;26.07;36.67;99093.34;4998884;28;20821;-73
2022/09/08 12:09:32;;;;;;;1.77;0.93;;;;;;;25.98;36.05;99097.31;4997940;28;20457;-73
2022/09/08 12:12:33;;;;;;;1.00;0.90;;;;;;;25.67;35.82;99093.34;4999895;28;20583;-73
2022/09/08 12:15:15;;;;;;;2.43;1.33;;;;;;;25.51;36.62;99102.66;4997959;28;20695;-73